sensor_id;sensor_type;location;lat;lon;timestamp;temperature;humidity
18781;DHT22;9519;51.890;8.970;2023-02-05T00:02:10;2.60;99.90
18781;DHT22;9519;51.890;8.970;2023-02-05T00:07:13;2.70;99.90
18781;DHT22;9519;51.890;8.970;2023-02-05T00:12:18;2.80;99.90
18781;DHT22;9519;51.890;8.970;2023-02-05T00:17:20;3.00;99.90
18781;DHT22;9519;51.890;8.970;2023-02-05T00:22:22;2.60;99.90
18781;DHT22;9519;51.890;8.970;2023-02-05T00:27:26;2.10;99.90
18781;DHT22;9519;51.890;8.970;2023-02-05T00:32:28;3.30;99.90
18781;DHT22;9519;51.890;8.970;2023-02-05T00:37:30;3.00;99.90
18781;DHT22;9519;51.890;8.970;2023-02-05T00:42:33;3.10;99.90
18781;DHT22;9519;51.890;8.970;2023-02-05T00:47:35;2.70;99.90
18781;DHT22;9519;51.890;8.970;2023-02-05T00:52:37;2.50;99.90
18781;DHT22;9519;51.890;8.970;2023-02-05T00:57:41;2.70;99.90
18781;DHT22;9519;51.890;8.970;2023-02-05T01:02:43;2.80;99.90
18781;DHT22;9519;51.890;8.970;2023-02-05T01:07:45;2.70;99.90
18781;DHT22;9519;51.890;8.970;2023-02-05T01:12:49;2.70;99.90
18781;DHT22;9519;51.890;8.970;2023-02-05T01:17:51;2.40;99.90
18781;DHT22;9519;51.890;8.970;2023-02-05T01:22:53;3.10;99.90
18781;DHT22;9519;51.890;8.970;2023-02-05T01:27:57;2.60;99.90
18781;DHT22;9519;51.890;8.970;2023-02-05T01:32:59;2.50;99.90
18781;DHT22;9519;51.890;8.970;2023-02-05T01:38:01;2.40;99.90
18781;DHT22;9519;51.890;8.970;2023-02-05T01:43:08;2.80;99.90
18781;DHT22;9519;51.890;8.970;2023-02-05T01:48:12;2.60;99.90
18781;DHT22;9519;51.890;8.970;2023-02-05T01:53:18;2.70;99.90
18781;DHT22;9519;51.890;8.970;2023-02-05T01:58:27;2.60;99.90
18781;DHT22;9519;51.890;8.970;2023-02-05T02:03:32;2.80;99.90
18781;DHT22;9519;51.890;8.970;2023-02-05T02:08:34;2.60;99.90
18781;DHT22;9519;51.890;8.970;2023-02-05T02:13:38;2.30;99.90
18781;DHT22;9519;51.890;8.970;2023-02-05T02:18:42;2.60;99.90
18781;DHT22;9519;51.890;8.970;2023-02-05T02:23:58;2.50;99.90
18781;DHT22;9519;51.890;8.970;2023-02-05T02:29:22;2.60;99.90
18781;DHT22;9519;51.890;8.970;2023-02-05T02:34:38;2.50;99.90
18781;DHT22;9519;51.890;8.970;2023-02-05T02:39:53;2.50;99.90
18781;DHT22;9519;51.890;8.970;2023-02-05T02:45:03;2.40;99.90
18781;DHT22;9519;51.890;8.970;2023-02-05T02:50:11;2.20;99.90
18781;DHT22;9519;51.890;8.970;2023-02-05T02:55:19;2.50;99.90
18781;DHT22;9519;51.890;8.970;2023-02-05T03:00:25;2.20;99.90
18781;DHT22;9519;51.890;8.970;2023-02-05T03:05:29;2.50;99.90
18781;DHT22;9519;51.890;8.970;2023-02-05T03:10:36;2.40;99.90
18781;DHT22;9519;51.890;8.970;2023-02-05T03:15:43;2.60;99.90
18781;DHT22;9519;51.890;8.970;2023-02-05T03:20:51;2.60;99.90
18781;DHT22;9519;51.890;8.970;2023-02-05T03:25:54;2.50;99.90
18781;DHT22;9519;51.890;8.970;2023-02-05T03:31:01;2.70;99.90
18781;DHT22;9519;51.890;8.970;2023-02-05T03:36:15;2.60;99.90
18781;DHT22;9519;51.890;8.970;2023-02-05T03:41:31;3.10;99.90
18781;DHT22;9519;51.890;8.970;2023-02-05T03:47:00;3.10;99.90
18781;DHT22;9519;51.890;8.970;2023-02-05T03:52:10;2.70;99.90
18781;DHT22;9519;51.890;8.970;2023-02-05T03:57:19;2.70;99.90
18781;DHT22;9519;51.890;8.970;2023-02-05T04:02:26;2.70;99.90
18781;DHT22;9519;51.890;8.970;2023-02-05T04:07:28;2.90;99.90
18781;DHT22;9519;51.890;8.970;2023-02-05T04:12:30;3.20;99.90
18781;DHT22;9519;51.890;8.970;2023-02-05T04:17:34;3.10;99.90
18781;DHT22;9519;51.890;8.970;2023-02-05T04:22:36;2.90;99.90
18781;DHT22;9519;51.890;8.970;2023-02-05T04:27:38;3.00;99.90
18781;DHT22;9519;51.890;8.970;2023-02-05T04:32:41;3.00;99.90
18781;DHT22;9519;51.890;8.970;2023-02-05T04:37:43;2.90;99.90
18781;DHT22;9519;51.890;8.970;2023-02-05T04:42:45;3.00;99.90
18781;DHT22;9519;51.890;8.970;2023-02-05T04:47:49;3.00;99.90
18781;DHT22;9519;51.890;8.970;2023-02-05T04:52:51;3.10;99.90
18781;DHT22;9519;51.890;8.970;2023-02-05T04:57:53;3.10;99.90
18781;DHT22;9519;51.890;8.970;2023-02-05T05:02:58;3.10;99.90
18781;DHT22;9519;51.890;8.970;2023-02-05T05:08:00;3.30;99.90
18781;DHT22;9519;51.890;8.970;2023-02-05T05:13:02;3.30;99.90
18781;DHT22;9519;51.890;8.970;2023-02-05T05:18:05;3.20;99.90
18781;DHT22;9519;51.890;8.970;2023-02-05T05:23:07;3.20;99.90
18781;DHT22;9519;51.890;8.970;2023-02-05T05:28:10;3.20;99.90
18781;DHT22;9519;51.890;8.970;2023-02-05T05:33:14;3.10;99.90
18781;DHT22;9519;51.890;8.970;2023-02-05T05:38:16;3.10;99.90
18781;DHT22;9519;51.890;8.970;2023-02-05T05:43:19;3.20;99.90
18781;DHT22;9519;51.890;8.970;2023-02-05T05:48:40;3.00;99.90
18781;DHT22;9519;51.890;8.970;2023-02-05T05:53:43;3.20;99.90
18781;DHT22;9519;51.890;8.970;2023-02-05T05:58:46;3.10;99.90
18781;DHT22;9519;51.890;8.970;2023-02-05T06:03:49;3.10;99.90
18781;DHT22;9519;51.890;8.970;2023-02-05T06:08:51;3.20;99.90
18781;DHT22;9519;51.890;8.970;2023-02-05T06:13:53;3.20;99.90
18781;DHT22;9519;51.890;8.970;2023-02-05T06:18:57;3.20;99.90
18781;DHT22;9519;51.890;8.970;2023-02-05T06:23:59;3.30;99.90
18781;DHT22;9519;51.890;8.970;2023-02-05T06:29:01;3.20;99.90
18781;DHT22;9519;51.890;8.970;2023-02-05T06:34:04;3.10;99.90
18781;DHT22;9519;51.890;8.970;2023-02-05T06:39:08;3.10;99.90
18781;DHT22;9519;51.890;8.970;2023-02-05T06:44:10;3.20;99.90
18781;DHT22;9519;51.890;8.970;2023-02-05T06:49:13;3.60;99.90
18781;DHT22;9519;51.890;8.970;2023-02-05T06:54:15;3.40;99.90
18781;DHT22;9519;51.890;8.970;2023-02-05T06:59:18;3.20;99.90
18781;DHT22;9519;51.890;8.970;2023-02-05T07:04:21;3.40;99.90
18781;DHT22;9519;51.890;8.970;2023-02-05T07:09:24;3.50;99.90
18781;DHT22;9519;51.890;8.970;2023-02-05T07:14:26;3.40;99.90
18781;DHT22;9519;51.890;8.970;2023-02-05T07:19:32;3.50;99.90
18781;DHT22;9519;51.890;8.970;2023-02-05T07:24:34;3.20;99.90
18781;DHT22;9519;51.890;8.970;2023-02-05T07:29:36;3.20;99.90
18781;DHT22;9519;51.890;8.970;2023-02-05T07:34:39;3.20;99.90
18781;DHT22;9519;51.890;8.970;2023-02-05T07:39:41;3.30;99.90
18781;DHT22;9519;51.890;8.970;2023-02-05T07:44:43;3.10;99.90
18781;DHT22;9519;51.890;8.970;2023-02-05T07:49:47;2.80;99.90
18781;DHT22;9519;51.890;8.970;2023-02-05T07:54:49;3.60;99.90
18781;DHT22;9519;51.890;8.970;2023-02-05T07:59:51;3.30;99.90
18781;DHT22;9519;51.890;8.970;2023-02-05T08:04:54;3.20;99.90
18781;DHT22;9519;51.890;8.970;2023-02-05T08:09:59;3.20;99.90
18781;DHT22;9519;51.890;8.970;2023-02-05T08:15:01;2.90;99.90
18781;DHT22;9519;51.890;8.970;2023-02-05T08:20:10;3.40;99.90
18781;DHT22;9519;51.890;8.970;2023-02-05T08:25:13;3.20;99.90
18781;DHT22;9519;51.890;8.970;2023-02-05T08:30:17;3.30;99.90
18781;DHT22;9519;51.890;8.970;2023-02-05T08:35:22;3.30;99.90
18781;DHT22;9519;51.890;8.970;2023-02-05T08:40:24;3.30;99.90
18781;DHT22;9519;51.890;8.970;2023-02-05T08:45:29;3.30;99.90
18781;DHT22;9519;51.890;8.970;2023-02-05T08:50:32;3.50;99.90
18781;DHT22;9519;51.890;8.970;2023-02-05T08:55:34;3.40;99.90
18781;DHT22;9519;51.890;8.970;2023-02-05T09:00:36;3.50;99.90
18781;DHT22;9519;51.890;8.970;2023-02-05T09:05:41;3.10;99.90
18781;DHT22;9519;51.890;8.970;2023-02-05T09:10:43;3.50;99.90
18781;DHT22;9519;51.890;8.970;2023-02-05T09:15:46;3.70;99.90
18781;DHT22;9519;51.890;8.970;2023-02-05T09:20:51;3.60;99.90
18781;DHT22;9519;51.890;8.970;2023-02-05T09:25:53;3.70;99.90
18781;DHT22;9519;51.890;8.970;2023-02-05T09:30:55;3.60;99.90
18781;DHT22;9519;51.890;8.970;2023-02-05T09:36:04;3.80;99.90
18781;DHT22;9519;51.890;8.970;2023-02-05T09:41:09;4.00;99.90
18781;DHT22;9519;51.890;8.970;2023-02-05T09:46:23;4.00;99.90
18781;DHT22;9519;51.890;8.970;2023-02-05T09:51:34;3.60;99.90
18781;DHT22;9519;51.890;8.970;2023-02-05T09:56:38;3.90;99.90
18781;DHT22;9519;51.890;8.970;2023-02-05T10:01:45;4.00;99.90
18781;DHT22;9519;51.890;8.970;2023-02-05T10:12:50;4.00;99.90
18781;DHT22;9519;51.890;8.970;2023-02-05T10:18:11;4.30;99.90
18781;DHT22;9519;51.890;8.970;2023-02-05T10:23:47;4.30;99.90
18781;DHT22;9519;51.890;8.970;2023-02-05T10:29:15;4.30;99.90
18781;DHT22;9519;51.890;8.970;2023-02-05T10:34:38;4.40;99.90
18781;DHT22;9519;51.890;8.970;2023-02-05T10:39:50;4.40;99.90
18781;DHT22;9519;51.890;8.970;2023-02-05T10:45:04;4.50;99.90
18781;DHT22;9519;51.890;8.970;2023-02-05T10:50:17;4.50;99.90
18781;DHT22;9519;51.890;8.970;2023-02-05T10:55:25;4.60;99.90
18781;DHT22;9519;51.890;8.970;2023-02-05T11:00:28;4.70;99.90
18781;DHT22;9519;51.890;8.970;2023-02-05T11:05:34;4.80;99.90
18781;DHT22;9519;51.890;8.970;2023-02-05T11:10:40;4.80;99.90
18781;DHT22;9519;51.890;8.970;2023-02-05T11:15:52;4.90;99.90
18781;DHT22;9519;51.890;8.970;2023-02-05T11:20:58;5.00;99.90
18781;DHT22;9519;51.890;8.970;2023-02-05T11:26:09;5.00;99.90
18781;DHT22;9519;51.890;8.970;2023-02-05T11:31:20;5.10;99.90
18781;DHT22;9519;51.890;8.970;2023-02-05T11:36:25;5.20;99.90
18781;DHT22;9519;51.890;8.970;2023-02-05T11:41:30;5.40;99.90
18781;DHT22;9519;51.890;8.970;2023-02-05T11:46:47;5.40;99.90
18781;DHT22;9519;51.890;8.970;2023-02-05T11:51:56;5.50;99.90
18781;DHT22;9519;51.890;8.970;2023-02-05T11:57:03;5.70;99.90
18781;DHT22;9519;51.890;8.970;2023-02-05T12:02:31;5.80;99.90
18781;DHT22;9519;51.890;8.970;2023-02-05T12:07:37;5.80;99.90
18781;DHT22;9519;51.890;8.970;2023-02-05T12:12:51;5.80;99.90
18781;DHT22;9519;51.890;8.970;2023-02-05T12:18:08;5.60;99.90
18781;DHT22;9519;51.890;8.970;2023-02-05T12:23:29;5.80;99.90
18781;DHT22;9519;51.890;8.970;2023-02-05T12:28:49;5.80;99.90
18781;DHT22;9519;51.890;8.970;2023-02-05T12:34:16;5.80;99.90
18781;DHT22;9519;51.890;8.970;2023-02-05T12:39:33;5.80;99.90
18781;DHT22;9519;51.890;8.970;2023-02-05T12:50:17;5.90;99.90
18781;DHT22;9519;51.890;8.970;2023-02-05T12:55:43;5.90;99.90
18781;DHT22;9519;51.890;8.970;2023-02-05T13:00:57;6.00;99.90
18781;DHT22;9519;51.890;8.970;2023-02-05T13:06:06;6.00;99.90
18781;DHT22;9519;51.890;8.970;2023-02-05T13:11:15;6.00;99.90
18781;DHT22;9519;51.890;8.970;2023-02-05T13:16:30;6.00;99.90
18781;DHT22;9519;51.890;8.970;2023-02-05T13:21:38;6.00;99.90
18781;DHT22;9519;51.890;8.970;2023-02-05T13:26:58;6.00;99.90
18781;DHT22;9519;51.890;8.970;2023-02-05T13:32:21;6.10;99.90
18781;DHT22;9519;51.890;8.970;2023-02-05T13:37:50;5.90;99.90
18781;DHT22;9519;51.890;8.970;2023-02-05T13:43:41;5.80;99.90
18781;DHT22;9519;51.890;8.970;2023-02-05T13:55:06;5.80;99.90
18781;DHT22;9519;51.890;8.970;2023-02-05T14:00:24;5.60;99.90
18781;DHT22;9519;51.890;8.970;2023-02-05T14:05:30;5.60;99.90
18781;DHT22;9519;51.890;8.970;2023-02-05T14:10:37;5.50;99.90
18781;DHT22;9519;51.890;8.970;2023-02-05T14:15:43;5.50;99.90
18781;DHT22;9519;51.890;8.970;2023-02-05T14:20:47;5.50;99.90
18781;DHT22;9519;51.890;8.970;2023-02-05T14:26:05;5.50;99.90
18781;DHT22;9519;51.890;8.970;2023-02-05T14:31:45;5.50;99.90
18781;DHT22;9519;51.890;8.970;2023-02-05T14:36:53;5.50;99.90
18781;DHT22;9519;51.890;8.970;2023-02-05T14:41:56;5.40;99.90
18781;DHT22;9519;51.890;8.970;2023-02-05T14:47:03;5.30;99.90
18781;DHT22;9519;51.890;8.970;2023-02-05T14:52:22;5.30;99.90
18781;DHT22;9519;51.890;8.970;2023-02-05T14:57:44;5.30;99.90
18781;DHT22;9519;51.890;8.970;2023-02-05T15:08:37;5.30;99.90
18781;DHT22;9519;51.890;8.970;2023-02-05T15:19:36;5.30;99.90
18781;DHT22;9519;51.890;8.970;2023-02-05T15:24:44;5.30;99.90
18781;DHT22;9519;51.890;8.970;2023-02-05T15:29:51;5.30;99.90
18781;DHT22;9519;51.890;8.970;2023-02-05T15:35:00;5.30;99.90
18781;DHT22;9519;51.890;8.970;2023-02-05T15:40:15;5.30;99.90
18781;DHT22;9519;51.890;8.970;2023-02-05T15:45:22;5.30;99.90
18781;DHT22;9519;51.890;8.970;2023-02-05T15:50:26;5.20;99.90
18781;DHT22;9519;51.890;8.970;2023-02-05T15:55:30;5.20;99.90
18781;DHT22;9519;51.890;8.970;2023-02-05T16:00:36;5.30;99.90
18781;DHT22;9519;51.890;8.970;2023-02-05T16:05:50;5.30;99.90
18781;DHT22;9519;51.890;8.970;2023-02-05T16:10:56;5.30;99.90
18781;DHT22;9519;51.890;8.970;2023-02-05T16:16:04;5.40;99.90
18781;DHT22;9519;51.890;8.970;2023-02-05T16:21:14;5.40;99.90
18781;DHT22;9519;51.890;8.970;2023-02-05T16:26:25;5.40;99.90
18781;DHT22;9519;51.890;8.970;2023-02-05T16:31:33;5.40;99.90
18781;DHT22;9519;51.890;8.970;2023-02-05T16:36:38;5.40;99.90
18781;DHT22;9519;51.890;8.970;2023-02-05T16:41:44;5.40;99.90
18781;DHT22;9519;51.890;8.970;2023-02-05T16:47:12;5.30;99.90
18781;DHT22;9519;51.890;8.970;2023-02-05T16:52:28;5.30;99.90
18781;DHT22;9519;51.890;8.970;2023-02-05T16:57:35;5.30;99.90
18781;DHT22;9519;51.890;8.970;2023-02-05T17:02:40;5.20;99.90
18781;DHT22;9519;51.890;8.970;2023-02-05T17:07:42;5.20;99.90
18781;DHT22;9519;51.890;8.970;2023-02-05T17:12:55;5.20;99.90
18781;DHT22;9519;51.890;8.970;2023-02-05T17:17:59;5.20;99.90
18781;DHT22;9519;51.890;8.970;2023-02-05T17:23:10;5.20;99.90
18781;DHT22;9519;51.890;8.970;2023-02-05T17:28:16;5.10;99.90
18781;DHT22;9519;51.890;8.970;2023-02-05T17:33:23;5.10;99.90
18781;DHT22;9519;51.890;8.970;2023-02-05T17:38:26;5.10;99.90
18781;DHT22;9519;51.890;8.970;2023-02-05T17:43:29;5.10;99.90
18781;DHT22;9519;51.890;8.970;2023-02-05T17:48:31;5.20;99.90
18781;DHT22;9519;51.890;8.970;2023-02-05T17:53:33;5.00;99.90
18781;DHT22;9519;51.890;8.970;2023-02-05T17:58:37;5.00;99.90
18781;DHT22;9519;51.890;8.970;2023-02-05T18:03:39;5.10;99.90
18781;DHT22;9519;51.890;8.970;2023-02-05T18:08:42;4.90;99.90
18781;DHT22;9519;51.890;8.970;2023-02-05T18:13:45;4.60;99.90
18781;DHT22;9519;51.890;8.970;2023-02-05T18:18:47;4.80;99.90
18781;DHT22;9519;51.890;8.970;2023-02-05T18:23:49;4.50;99.90
18781;DHT22;9519;51.890;8.970;2023-02-05T18:28:54;4.60;99.90
18781;DHT22;9519;51.890;8.970;2023-02-05T18:33:56;4.70;99.90
18781;DHT22;9519;51.890;8.970;2023-02-05T18:38:58;4.70;99.90
18781;DHT22;9519;51.890;8.970;2023-02-05T18:44:01;5.00;99.90
18781;DHT22;9519;51.890;8.970;2023-02-05T18:49:03;4.60;99.90
18781;DHT22;9519;51.890;8.970;2023-02-05T18:54:05;4.60;99.90
18781;DHT22;9519;51.890;8.970;2023-02-05T18:59:13;4.80;99.90
18781;DHT22;9519;51.890;8.970;2023-02-05T19:04:17;4.70;99.90
18781;DHT22;9519;51.890;8.970;2023-02-05T19:09:22;4.60;99.90
18781;DHT22;9519;51.890;8.970;2023-02-05T19:14:28;4.50;99.90
18781;DHT22;9519;51.890;8.970;2023-02-05T19:19:30;4.50;99.90
18781;DHT22;9519;51.890;8.970;2023-02-05T19:24:33;4.70;99.90
18781;DHT22;9519;51.890;8.970;2023-02-05T19:29:37;4.40;99.90
18781;DHT22;9519;51.890;8.970;2023-02-05T19:34:40;4.40;99.90
18781;DHT22;9519;51.890;8.970;2023-02-05T19:39:42;4.50;99.90
18781;DHT22;9519;51.890;8.970;2023-02-05T19:44:46;4.70;99.90
18781;DHT22;9519;51.890;8.970;2023-02-05T19:49:48;4.40;99.90
18781;DHT22;9519;51.890;8.970;2023-02-05T19:54:50;4.40;99.90
18781;DHT22;9519;51.890;8.970;2023-02-05T19:59:53;4.50;99.90
18781;DHT22;9519;51.890;8.970;2023-02-05T20:04:55;4.40;99.90
18781;DHT22;9519;51.890;8.970;2023-02-05T20:09:57;4.50;99.90
18781;DHT22;9519;51.890;8.970;2023-02-05T20:15:00;4.80;99.90
18781;DHT22;9519;51.890;8.970;2023-02-05T20:20:03;4.40;99.90
18781;DHT22;9519;51.890;8.970;2023-02-05T20:25:06;4.40;99.90
18781;DHT22;9519;51.890;8.970;2023-02-05T20:30:12;4.30;99.90
18781;DHT22;9519;51.890;8.970;2023-02-05T20:35:33;4.10;99.90
18781;DHT22;9519;51.890;8.970;2023-02-05T20:40:36;4.20;99.90
18781;DHT22;9519;51.890;8.970;2023-02-05T20:45:39;4.60;99.90
18781;DHT22;9519;51.890;8.970;2023-02-05T20:50:41;4.40;99.90
18781;DHT22;9519;51.890;8.970;2023-02-05T20:55:43;4.40;99.90
18781;DHT22;9519;51.890;8.970;2023-02-05T21:00:47;4.30;99.90
18781;DHT22;9519;51.890;8.970;2023-02-05T21:05:49;4.50;99.90
18781;DHT22;9519;51.890;8.970;2023-02-05T21:10:51;4.30;99.90
18781;DHT22;9519;51.890;8.970;2023-02-05T21:15:56;4.30;99.90
18781;DHT22;9519;51.890;8.970;2023-02-05T21:21:06;4.60;99.90
18781;DHT22;9519;51.890;8.970;2023-02-05T21:26:17;4.60;99.90
18781;DHT22;9519;51.890;8.970;2023-02-05T21:31:22;4.30;99.90
18781;DHT22;9519;51.890;8.970;2023-02-05T21:36:25;4.30;99.90
18781;DHT22;9519;51.890;8.970;2023-02-05T21:41:27;4.80;99.90
18781;DHT22;9519;51.890;8.970;2023-02-05T21:46:30;4.30;99.90
18781;DHT22;9519;51.890;8.970;2023-02-05T21:51:34;4.50;99.90
18781;DHT22;9519;51.890;8.970;2023-02-05T21:56:38;4.50;99.90
18781;DHT22;9519;51.890;8.970;2023-02-05T22:01:42;4.20;99.90
18781;DHT22;9519;51.890;8.970;2023-02-05T22:11:48;4.30;99.90
18781;DHT22;9519;51.890;8.970;2023-02-05T22:16:54;4.30;99.90
18781;DHT22;9519;51.890;8.970;2023-02-05T22:21:56;4.30;99.90
18781;DHT22;9519;51.890;8.970;2023-02-05T22:26:58;4.30;99.90
18781;DHT22;9519;51.890;8.970;2023-02-05T22:32:02;4.30;99.90
18781;DHT22;9519;51.890;8.970;2023-02-05T22:37:04;4.30;99.90
18781;DHT22;9519;51.890;8.970;2023-02-05T22:42:06;4.30;99.90
18781;DHT22;9519;51.890;8.970;2023-02-05T22:47:09;4.60;99.90
18781;DHT22;9519;51.890;8.970;2023-02-05T22:52:11;4.40;99.90
18781;DHT22;9519;51.890;8.970;2023-02-05T22:57:13;4.40;99.90
18781;DHT22;9519;51.890;8.970;2023-02-05T23:02:17;4.50;99.90
18781;DHT22;9519;51.890;8.970;2023-02-05T23:07:19;4.60;99.90
18781;DHT22;9519;51.890;8.970;2023-02-05T23:12:21;4.60;99.90
18781;DHT22;9519;51.890;8.970;2023-02-05T23:17:25;4.70;99.90
18781;DHT22;9519;51.890;8.970;2023-02-05T23:22:27;4.70;99.90
18781;DHT22;9519;51.890;8.970;2023-02-05T23:27:31;4.70;99.90
18781;DHT22;9519;51.890;8.970;2023-02-05T23:32:35;5.00;99.90
18781;DHT22;9519;51.890;8.970;2023-02-05T23:37:37;4.70;99.90
18781;DHT22;9519;51.890;8.970;2023-02-05T23:42:39;4.70;99.90
18781;DHT22;9519;51.890;8.970;2023-02-05T23:47:43;4.80;99.90
18781;DHT22;9519;51.890;8.970;2023-02-05T23:52:45;4.40;99.90
18781;DHT22;9519;51.890;8.970;2023-02-05T23:57:47;3.90;99.90
